KBIL

Billings Logan International Airport

Billings, Montana, USA
METAR KBIL 192153Z 06009KT 10SM OVC021 10/05 A3004 RMK AO2 SLP174 T01000050
Observed Flight Rules
Sep-19 @ 21:53 UTC (an hour ago) Marginal Visual Flight Rules
Wind Visibility Clouds
60° at 9 knots 10 miles
  • Overcast at 2,100' AGL
Temperatures Readings
Current 10°C / 50°F
Dewpoint 5°C / 41°F
Humidity 71%
Altimeter 30.04" Hg
Pressure 1017.4 hPa
Elevation 1091
METAR KBIL 192153Z 06009KT 10SM OVC021 10/05 A3004 RMK AO2 SLP174 T01000050
Observed Flight Rules
Sep-19 @ 21:53 UTC
(an hour ago)
MVFR
Wind Visibility
60° at 9 knots 10 miles
Clouds
  • Overcast at 2,100' AGL
Temperature Dewpoint
10°C / 50°F 5°C / 41°F
Humidity Altimeter Pressure
71% 30.04" Hg 1017.4 hPa